sensor_id;sensor_type;location;lat;lon;timestamp;pressure;altitude;pressure_sealevel;temperature;humidity
57801;BME280;43627;42.728;23.256;2023-07-24T00:00:30;95226.81;;;20.54;100.00
57801;BME280;43627;42.728;23.256;2023-07-24T00:02:57;95227.13;;;20.51;100.00
57801;BME280;43627;42.728;23.256;2023-07-24T00:05:23;95217.59;;;20.46;100.00
57801;BME280;43627;42.728;23.256;2023-07-24T00:07:50;95221.66;;;20.45;100.00
57801;BME280;43627;42.728;23.256;2023-07-24T00:10:17;95227.94;;;20.46;100.00
57801;BME280;43627;42.728;23.256;2023-07-24T00:12:44;95217.97;;;20.37;100.00
57801;BME280;43627;42.728;23.256;2023-07-24T00:15:10;95220.47;;;20.35;100.00
57801;BME280;43627;42.728;23.256;2023-07-24T00:17:37;95223.41;;;20.48;100.00
57801;BME280;43627;42.728;23.256;2023-07-24T00:20:06;95213.59;;;20.47;100.00
57801;BME280;43627;42.728;23.256;2023-07-24T00:22:33;95228.22;;;20.42;100.00
57801;BME280;43627;42.728;23.256;2023-07-24T00:24:59;95217.09;;;20.23;100.00
57801;BME280;43627;42.728;23.256;2023-07-24T00:27:26;95220.47;;;20.35;100.00
57801;BME280;43627;42.728;23.256;2023-07-24T00:29:54;95220.03;;;20.31;100.00
57801;BME280;43627;42.728;23.256;2023-07-24T00:32:20;95209.88;;;20.15;100.00
57801;BME280;43627;42.728;23.256;2023-07-24T00:34:47;95224.34;;;20.02;100.00
57801;BME280;43627;42.728;23.256;2023-07-24T00:37:14;95224.22;;;19.89;100.00
57801;BME280;43627;42.728;23.256;2023-07-24T00:39:41;95220.28;;;19.79;100.00
57801;BME280;43627;42.728;23.256;2023-07-24T00:42:07;95214.94;;;19.56;100.00
57801;BME280;43627;42.728;23.256;2023-07-24T00:44:34;95210.03;;;19.38;100.00
57801;BME280;43627;42.728;23.256;2023-07-24T00:47:01;95194.19;;;19.38;100.00
57801;BME280;43627;42.728;23.256;2023-07-24T00:49:28;95205.47;;;19.40;100.00
57801;BME280;43627;42.728;23.256;2023-07-24T00:51:54;95210.84;;;19.27;100.00
57801;BME280;43627;42.728;23.256;2023-07-24T00:54:22;95192.53;;;19.24;100.00
57801;BME280;43627;42.728;23.256;2023-07-24T00:56:49;95227.38;;;19.38;100.00
57801;BME280;43627;42.728;23.256;2023-07-24T00:59:16;95209.56;;;19.34;100.00
57801;BME280;43627;42.728;23.256;2023-07-24T01:01:43;95202.47;;;19.38;100.00
57801;BME280;43627;42.728;23.256;2023-07-24T01:04:10;95188.75;;;19.27;100.00
57801;BME280;43627;42.728;23.256;2023-07-24T01:06:37;95207.94;;;19.14;100.00
57801;BME280;43627;42.728;23.256;2023-07-24T01:09:04;95191.22;;;18.95;100.00
57801;BME280;43627;42.728;23.256;2023-07-24T01:11:39;95207.53;;;18.93;100.00
57801;BME280;43627;42.728;23.256;2023-07-24T01:14:17;95210.06;;;18.97;100.00
57801;BME280;43627;42.728;23.256;2023-07-24T01:16:46;95199.53;;;18.95;100.00
57801;BME280;43627;42.728;23.256;2023-07-24T01:22:25;95192.22;;;18.92;100.00
57801;BME280;43627;42.728;23.256;2023-07-24T01:27:45;95180.25;;;18.78;100.00
57801;BME280;43627;42.728;23.256;2023-07-24T01:30:18;95165.78;;;18.67;100.00
57801;BME280;43627;42.728;23.256;2023-07-24T01:32:45;95174.06;;;18.55;100.00
57801;BME280;43627;42.728;23.256;2023-07-24T01:35:12;95194.63;;;18.66;100.00
57801;BME280;43627;42.728;23.256;2023-07-24T01:37:39;95215.22;;;18.65;100.00
57801;BME280;43627;42.728;23.256;2023-07-24T01:40:08;95216.72;;;18.66;100.00
57801;BME280;43627;42.728;23.256;2023-07-24T01:42:35;95204.44;;;18.55;100.00
57801;BME280;43627;42.728;23.256;2023-07-24T01:45:03;95200.69;;;18.59;100.00
57801;BME280;43627;42.728;23.256;2023-07-24T01:47:30;95193.72;;;18.35;100.00
57801;BME280;43627;42.728;23.256;2023-07-24T01:49:58;95203.78;;;18.33;100.00
57801;BME280;43627;42.728;23.256;2023-07-24T01:52:25;95210.75;;;18.45;100.00
57801;BME280;43627;42.728;23.256;2023-07-24T01:54:52;95200.75;;;18.42;100.00
57801;BME280;43627;42.728;23.256;2023-07-24T01:57:18;95202.00;;;18.35;100.00
57801;BME280;43627;42.728;23.256;2023-07-24T01:59:45;95205.28;;;18.34;100.00
57801;BME280;43627;42.728;23.256;2023-07-24T02:02:12;95202.03;;;18.30;100.00
57801;BME280;43627;42.728;23.256;2023-07-24T02:04:39;95208.31;;;18.19;100.00
57801;BME280;43627;42.728;23.256;2023-07-24T02:07:05;95214.13;;;18.15;100.00
57801;BME280;43627;42.728;23.256;2023-07-24T02:09:32;95221.13;;;18.22;100.00
57801;BME280;43627;42.728;23.256;2023-07-24T02:11:59;95211.88;;;18.19;100.00
57801;BME280;43627;42.728;23.256;2023-07-24T02:14:26;95206.78;;;18.35;100.00
57801;BME280;43627;42.728;23.256;2023-07-24T02:16:53;95201.53;;;18.31;100.00
57801;BME280;43627;42.728;23.256;2023-07-24T02:19:20;95202.28;;;18.32;100.00
57801;BME280;43627;42.728;23.256;2023-07-24T02:21:46;95186.72;;;18.28;100.00
57801;BME280;43627;42.728;23.256;2023-07-24T02:24:13;95200.78;;;18.25;100.00
57801;BME280;43627;42.728;23.256;2023-07-24T02:26:40;95196.06;;;18.20;100.00
57801;BME280;43627;42.728;23.256;2023-07-24T02:29:06;95205.59;;;18.08;100.00
57801;BME280;43627;42.728;23.256;2023-07-24T02:31:34;95184.06;;;17.95;100.00
57801;BME280;43627;42.728;23.256;2023-07-24T02:34:00;95195.59;;;18.05;100.00
57801;BME280;43627;42.728;23.256;2023-07-24T02:36:27;95199.09;;;18.05;100.00
57801;BME280;43627;42.728;23.256;2023-07-24T02:38:54;95191.06;;;18.07;100.00
57801;BME280;43627;42.728;23.256;2023-07-24T02:41:21;95190.03;;;18.16;100.00
57801;BME280;43627;42.728;23.256;2023-07-24T02:43:47;95204.06;;;18.23;100.00
57801;BME280;43627;42.728;23.256;2023-07-24T02:46:14;95197.03;;;18.22;100.00
57801;BME280;43627;42.728;23.256;2023-07-24T02:48:41;95188.81;;;18.11;100.00
57801;BME280;43627;42.728;23.256;2023-07-24T02:51:07;95185.03;;;18.14;100.00
57801;BME280;43627;42.728;23.256;2023-07-24T02:53:34;95200.03;;;18.24;100.00
57801;BME280;43627;42.728;23.256;2023-07-24T02:56:01;95187.75;;;18.25;100.00
57801;BME280;43627;42.728;23.256;2023-07-24T02:58:28;95194.56;;;18.08;100.00
57801;BME280;43627;42.728;23.256;2023-07-24T03:01:03;95198.41;;;17.82;100.00
57801;BME280;43627;42.728;23.256;2023-07-24T03:03:30;95201.63;;;17.81;100.00
57801;BME280;43627;42.728;23.256;2023-07-24T03:05:57;95198.13;;;17.91;100.00
57801;BME280;43627;42.728;23.256;2023-07-24T03:08:24;95200.09;;;17.96;100.00
57801;BME280;43627;42.728;23.256;2023-07-24T03:10:50;95211.16;;;17.91;100.00
57801;BME280;43627;42.728;23.256;2023-07-24T03:13:17;95203.13;;;17.87;100.00
57801;BME280;43627;42.728;23.256;2023-07-24T03:15:54;95201.63;;;17.86;100.00
57801;BME280;43627;42.728;23.256;2023-07-24T03:18:22;95200.63;;;17.89;100.00
57801;BME280;43627;42.728;23.256;2023-07-24T03:20:50;95197.63;;;17.87;100.00
57801;BME280;43627;42.728;23.256;2023-07-24T03:23:16;95198.63;;;17.79;100.00
57801;BME280;43627;42.728;23.256;2023-07-24T03:25:43;95203.66;;;17.75;100.00
57801;BME280;43627;42.728;23.256;2023-07-24T03:28:10;95207.66;;;17.62;100.00
57801;BME280;43627;42.728;23.256;2023-07-24T03:30:36;95197.88;;;17.61;100.00
57801;BME280;43627;42.728;23.256;2023-07-24T03:33:03;95198.38;;;17.60;100.00
57801;BME280;43627;42.728;23.256;2023-07-24T03:35:30;95203.91;;;17.65;100.00
57801;BME280;43627;42.728;23.256;2023-07-24T03:37:57;95207.91;;;17.64;100.00
57801;BME280;43627;42.728;23.256;2023-07-24T03:40:24;95200.91;;;17.63;100.00
57801;BME280;43627;42.728;23.256;2023-07-24T03:42:50;95207.91;;;17.64;100.00
57801;BME280;43627;42.728;23.256;2023-07-24T03:45:17;95203.38;;;17.61;100.00
57801;BME280;43627;42.728;23.256;2023-07-24T03:47:44;95206.38;;;17.69;100.00
57801;BME280;43627;42.728;23.256;2023-07-24T03:50:11;95192.63;;;17.58;100.00
57801;BME280;43627;42.728;23.256;2023-07-24T03:52:38;95199.66;;;17.70;100.00
57801;BME280;43627;42.728;23.256;2023-07-24T03:55:05;95209.66;;;17.90;100.00
57801;BME280;43627;42.728;23.256;2023-07-24T03:57:34;95209.38;;;18.10;100.00
57801;BME280;43627;42.728;23.256;2023-07-24T04:00:02;95204.34;;;18.20;100.00
57801;BME280;43627;42.728;23.256;2023-07-24T04:02:29;95204.06;;;18.18;100.00
57801;BME280;43627;42.728;23.256;2023-07-24T04:04:56;95204.25;;;18.37;100.00
57801;BME280;43627;42.728;23.256;2023-07-24T04:07:22;95206.97;;;18.53;100.00
57801;BME280;43627;42.728;23.256;2023-07-24T04:09:49;95199.94;;;18.47;100.00
57801;BME280;43627;42.728;23.256;2023-07-24T04:12:16;95195.63;;;18.57;100.00
57801;BME280;43627;42.728;23.256;2023-07-24T04:14:43;95200.59;;;18.81;100.00
57801;BME280;43627;42.728;23.256;2023-07-24T04:17:09;95209.09;;;18.89;100.00
57801;BME280;43627;42.728;23.256;2023-07-24T04:19:36;95221.88;;;18.92;100.00
57801;BME280;43627;42.728;23.256;2023-07-24T04:22:03;95225.31;;;19.03;100.00
57801;BME280;43627;42.728;23.256;2023-07-24T04:24:30;95220.00;;;19.11;100.00
57801;BME280;43627;42.728;23.256;2023-07-24T04:26:56;95226.50;;;19.19;100.00
57801;BME280;43627;42.728;23.256;2023-07-24T04:29:23;95212.97;;;19.10;100.00
57801;BME280;43627;42.728;23.256;2023-07-24T04:31:52;95205.72;;;19.07;100.00
57801;BME280;43627;42.728;23.256;2023-07-24T04:34:19;95221.72;;;19.20;100.00
57801;BME280;43627;42.728;23.256;2023-07-24T04:36:45;95226.09;;;19.39;100.00
57801;BME280;43627;42.728;23.256;2023-07-24T04:39:12;95216.75;;;19.78;100.00
57801;BME280;43627;42.728;23.256;2023-07-24T04:41:39;95216.84;;;20.21;100.00
57801;BME280;43627;42.728;23.256;2023-07-24T04:44:05;95216.88;;;20.65;100.00
57801;BME280;43627;42.728;23.256;2023-07-24T04:46:32;95231.59;;;21.35;100.00
57801;BME280;43627;42.728;23.256;2023-07-24T04:49:00;95231.97;;;22.09;95.63
57801;BME280;43627;42.728;23.256;2023-07-24T04:51:26;95226.19;;;22.73;88.50
57801;BME280;43627;42.728;23.256;2023-07-24T04:59:27;95180.22;;;22.72;83.07
57801;BME280;43627;42.728;23.256;2023-07-24T05:01:56;95234.97;;;22.64;82.92
57801;BME280;43627;42.728;23.256;2023-07-24T05:04:29;95165.47;;;21.20;92.00
57801;BME280;43627;42.728;23.256;2023-07-24T05:06:56;95198.97;;;21.22;96.30
57801;BME280;43627;42.728;23.256;2023-07-24T05:09:24;95190.06;;;21.10;98.18
57801;BME280;43627;42.728;23.256;2023-07-24T05:12:01;95246.03;;;21.65;97.96
57801;BME280;43627;42.728;23.256;2023-07-24T05:14:28;95235.88;;;22.00;94.13
57801;BME280;43627;42.728;23.256;2023-07-24T05:17:00;95241.94;;;22.57;89.28
57801;BME280;43627;42.728;23.256;2023-07-24T05:19:30;95204.69;;;22.73;85.31
57801;BME280;43627;42.728;23.256;2023-07-24T05:22:17;95175.19;;;22.84;82.20
57801;BME280;43627;42.728;23.256;2023-07-24T05:25:02;95195.03;;;23.14;79.97
57801;BME280;43627;42.728;23.256;2023-07-24T05:27:35;95227.44;;;23.12;82.73
57801;BME280;43627;42.728;23.256;2023-07-24T05:30:21;95184.28;;;22.71;80.86
57801;BME280;43627;42.728;23.256;2023-07-24T05:39:54;95205.50;;;23.42;80.12
57801;BME280;43627;42.728;23.256;2023-07-24T05:42:24;95222.78;;;24.03;75.45
57801;BME280;43627;42.728;23.256;2023-07-24T05:45:01;95149.09;;;23.83;70.89
57801;BME280;43627;42.728;23.256;2023-07-24T05:47:50;95163.66;;;24.46;67.69
57801;BME280;43627;42.728;23.256;2023-07-24T05:50:21;95206.00;;;24.81;66.73
57801;BME280;43627;42.728;23.256;2023-07-24T06:05:50;95162.28;;;23.41;78.98
57801;BME280;43627;42.728;23.256;2023-07-24T06:11:48;95198.69;;;24.70;69.69
57801;BME280;43627;42.728;23.256;2023-07-24T06:14:16;95194.00;;;25.01;65.67
57801;BME280;43627;42.728;23.256;2023-07-24T06:16:43;95195.91;;;25.06;66.63
57801;BME280;43627;42.728;23.256;2023-07-24T06:19:10;95173.97;;;25.11;65.44
57801;BME280;43627;42.728;23.256;2023-07-24T06:21:39;95201.22;;;25.48;63.94
57801;BME280;43627;42.728;23.256;2023-07-24T06:24:07;95182.41;;;25.41;62.18
57801;BME280;43627;42.728;23.256;2023-07-24T06:26:39;95163.25;;;25.53;61.52
57801;BME280;43627;42.728;23.256;2023-07-24T06:29:05;95212.84;;;25.98;59.18
57801;BME280;43627;42.728;23.256;2023-07-24T06:31:32;95208.00;;;25.91;61.01
57801;BME280;43627;42.728;23.256;2023-07-24T06:33:59;95199.44;;;25.89;61.99
57801;BME280;43627;42.728;23.256;2023-07-24T06:36:26;95205.75;;;25.82;62.11
57801;BME280;43627;42.728;23.256;2023-07-24T06:38:53;95207.78;;;25.74;61.23
57801;BME280;43627;42.728;23.256;2023-07-24T06:41:20;95199.38;;;25.58;62.86
57801;BME280;43627;42.728;23.256;2023-07-24T06:43:49;95199.03;;;25.70;62.78
57801;BME280;43627;42.728;23.256;2023-07-24T06:46:16;95199.78;;;25.93;61.46
57801;BME280;43627;42.728;23.256;2023-07-24T06:48:43;95208.19;;;26.08;60.09
57801;BME280;43627;42.728;23.256;2023-07-24T06:51:13;95197.72;;;26.32;57.58
57801;BME280;43627;42.728;23.256;2023-07-24T06:53:40;95209.84;;;26.34;57.55
57801;BME280;43627;42.728;23.256;2023-07-24T06:56:07;95204.22;;;26.50;56.53
57801;BME280;43627;42.728;23.256;2023-07-24T06:58:33;95205.88;;;26.60;57.16
57801;BME280;43627;42.728;23.256;2023-07-24T07:01:05;95217.09;;;26.53;56.60
57801;BME280;43627;42.728;23.256;2023-07-24T07:03:32;95206.22;;;26.72;55.27
57801;BME280;43627;42.728;23.256;2023-07-24T07:06:01;95214.25;;;26.68;54.05
57801;BME280;43627;42.728;23.256;2023-07-24T07:08:32;95211.59;;;26.93;52.24
57801;BME280;43627;42.728;23.256;2023-07-24T07:10:59;95197.94;;;27.04;51.80
57801;BME280;43627;42.728;23.256;2023-07-24T07:13:27;95209.38;;;27.31;51.49
57801;BME280;43627;42.728;23.256;2023-07-24T07:15:53;95207.88;;;27.63;51.25
57801;BME280;43627;42.728;23.256;2023-07-24T07:18:20;95208.94;;;27.43;51.59
57801;BME280;43627;42.728;23.256;2023-07-24T07:20:48;95199.34;;;27.21;52.77
57801;BME280;43627;42.728;23.256;2023-07-24T07:23:16;95197.38;;;26.91;52.66
57801;BME280;43627;42.728;23.256;2023-07-24T07:25:43;95187.59;;;27.22;52.07
57801;BME280;43627;42.728;23.256;2023-07-24T07:28:12;95197.75;;;27.43;52.25
57801;BME280;43627;42.728;23.256;2023-07-24T07:30:40;95193.88;;;27.63;51.13
57801;BME280;43627;42.728;23.256;2023-07-24T07:33:09;95191.06;;;27.71;50.20
57801;BME280;43627;42.728;23.256;2023-07-24T07:35:36;95182.88;;;27.90;49.38
57801;BME280;43627;42.728;23.256;2023-07-24T07:38:03;95176.97;;;28.03;49.31
57801;BME280;43627;42.728;23.256;2023-07-24T07:40:30;95182.34;;;27.59;50.13
57801;BME280;43627;42.728;23.256;2023-07-24T07:42:57;95180.59;;;27.64;49.84
57801;BME280;43627;42.728;23.256;2023-07-24T07:45:24;95175.38;;;27.93;49.20
57801;BME280;43627;42.728;23.256;2023-07-24T07:47:56;95174.06;;;27.94;48.26
57801;BME280;43627;42.728;23.256;2023-07-24T07:50:23;95166.69;;;27.81;47.25
57801;BME280;43627;42.728;23.256;2023-07-24T07:52:50;95176.63;;;27.99;47.25
57801;BME280;43627;42.728;23.256;2023-07-24T07:55:18;95165.22;;;27.80;48.59
57801;BME280;43627;42.728;23.256;2023-07-24T07:57:45;95145.44;;;27.78;47.59
57801;BME280;43627;42.728;23.256;2023-07-24T08:00:13;95187.91;;;27.92;47.62
57801;BME280;43627;42.728;23.256;2023-07-24T08:02:39;95182.28;;;28.16;47.11
57801;BME280;43627;42.728;23.256;2023-07-24T08:05:08;95177.16;;;28.05;48.20
57801;BME280;43627;42.728;23.256;2023-07-24T08:07:49;95185.13;;;28.51;45.69
57801;BME280;43627;42.728;23.256;2023-07-24T08:10:22;95164.84;;;28.43;45.78
57801;BME280;43627;42.728;23.256;2023-07-24T08:12:49;95175.88;;;28.41;45.52
57801;BME280;43627;42.728;23.256;2023-07-24T08:15:16;95128.72;;;28.47;44.98
57801;BME280;43627;42.728;23.256;2023-07-24T08:17:43;95141.91;;;28.71;44.70
57801;BME280;43627;42.728;23.256;2023-07-24T08:20:10;95115.75;;;28.52;45.17
57801;BME280;43627;42.728;23.256;2023-07-24T08:22:37;95174.72;;;28.79;45.04
57801;BME280;43627;42.728;23.256;2023-07-24T08:25:05;95165.09;;;28.72;44.98
57801;BME280;43627;42.728;23.256;2023-07-24T08:27:32;95148.94;;;28.63;45.14
57801;BME280;43627;42.728;23.256;2023-07-24T08:30:11;95102.00;;;28.46;44.91
57801;BME280;43627;42.728;23.256;2023-07-24T08:32:39;95116.88;;;28.14;45.06
57801;BME280;43627;42.728;23.256;2023-07-24T08:35:07;95066.75;;;28.01;44.83
57801;BME280;43627;42.728;23.256;2023-07-24T08:37:35;95126.22;;;28.51;44.97
57801;BME280;43627;42.728;23.256;2023-07-24T08:40:03;95133.66;;;28.56;44.94
57801;BME280;43627;42.728;23.256;2023-07-24T08:42:31;95094.47;;;28.49;45.07
57801;BME280;43627;42.728;23.256;2023-07-24T08:44:58;95125.16;;;28.81;44.13
57801;BME280;43627;42.728;23.256;2023-07-24T08:47:25;95142.66;;;28.72;44.15
57801;BME280;43627;42.728;23.256;2023-07-24T08:49:53;95139.78;;;29.07;43.58
57801;BME280;43627;42.728;23.256;2023-07-24T08:52:21;95094.63;;;28.51;43.18
57801;BME280;43627;42.728;23.256;2023-07-24T08:55:02;95124.09;;;28.42;44.17
57801;BME280;43627;42.728;23.256;2023-07-24T08:57:30;95137.72;;;28.63;43.98
57801;BME280;43627;42.728;23.256;2023-07-24T08:59:56;95140.91;;;28.25;44.81
57801;BME280;43627;42.728;23.256;2023-07-24T09:02:25;95127.97;;;28.29;44.17
57801;BME280;43627;42.728;23.256;2023-07-24T09:04:52;95147.34;;;28.52;44.34
57801;BME280;43627;42.728;23.256;2023-07-24T09:07:19;95133.22;;;28.77;44.20
57801;BME280;43627;42.728;23.256;2023-07-24T09:09:47;95125.06;;;28.89;43.24
57801;BME280;43627;42.728;23.256;2023-07-24T09:12:16;95102.25;;;28.85;43.31
57801;BME280;43627;42.728;23.256;2023-07-24T09:14:43;95130.88;;;29.27;43.09
57801;BME280;43627;42.728;23.256;2023-07-24T09:17:12;95089.91;;;29.15;41.59
57801;BME280;43627;42.728;23.256;2023-07-24T09:19:39;95087.44;;;29.19;42.01
57801;BME280;43627;42.728;23.256;2023-07-24T09:22:16;95098.56;;;29.36;41.23
57801;BME280;43627;42.728;23.256;2023-07-24T09:24:52;95118.69;;;29.42;41.11
57801;BME280;43627;42.728;23.256;2023-07-24T09:27:26;95028.56;;;28.84;40.57
57801;BME280;43627;42.728;23.256;2023-07-24T09:29:53;95101.25;;;29.44;40.71
57801;BME280;43627;42.728;23.256;2023-07-24T09:32:26;95058.72;;;29.11;40.86
57801;BME280;43627;42.728;23.256;2023-07-24T09:34:53;95103.56;;;29.65;40.21
57801;BME280;43627;42.728;23.256;2023-07-24T09:37:35;95059.94;;;29.27;40.56
57801;BME280;43627;42.728;23.256;2023-07-24T09:40:05;95058.09;;;29.39;40.00
57801;BME280;43627;42.728;23.256;2023-07-24T09:42:34;95089.56;;;29.74;41.13
57801;BME280;43627;42.728;23.256;2023-07-24T09:45:18;95090.06;;;30.00;39.24
57801;BME280;43627;42.728;23.256;2023-07-24T09:47:49;95084.34;;;30.07;40.04
57801;BME280;43627;42.728;23.256;2023-07-24T09:50:23;95078.34;;;29.84;39.58
57801;BME280;43627;42.728;23.256;2023-07-24T09:52:58;95058.94;;;29.69;40.11
57801;BME280;43627;42.728;23.256;2023-07-24T09:55:47;95050.53;;;29.88;41.36
57801;BME280;43627;42.728;23.256;2023-07-24T09:58:15;95075.59;;;30.23;40.00
57801;BME280;43627;42.728;23.256;2023-07-24T10:01:03;95057.09;;;30.10;39.61
57801;BME280;43627;42.728;23.256;2023-07-24T10:03:39;95037.56;;;30.22;39.23
57801;BME280;43627;42.728;23.256;2023-07-24T10:06:36;95003.53;;;30.27;38.60
57801;BME280;43627;42.728;23.256;2023-07-24T10:54:24;95008.28;;;32.63;37.56
57801;BME280;43627;42.728;23.256;2023-07-24T10:57:11;94943.81;;;32.48;36.63
57801;BME280;43627;42.728;23.256;2023-07-24T10:59:44;95016.25;;;32.88;36.57
57801;BME280;43627;42.728;23.256;2023-07-24T11:02:26;95008.78;;;32.60;36.51
57801;BME280;43627;42.728;23.256;2023-07-24T11:04:54;94987.13;;;32.41;36.98
57801;BME280;43627;42.728;23.256;2023-07-24T11:07:21;95005.25;;;32.83;36.16
57801;BME280;43627;42.728;23.256;2023-07-24T11:09:50;95014.06;;;32.65;37.34
57801;BME280;43627;42.728;23.256;2023-07-24T11:12:18;94999.97;;;32.77;37.56
57801;BME280;43627;42.728;23.256;2023-07-24T11:14:55;94988.16;;;32.69;36.00
57801;BME280;43627;42.728;23.256;2023-07-24T11:17:34;94989.31;;;32.87;34.85
57801;BME280;43627;42.728;23.256;2023-07-24T11:20:11;94959.47;;;32.73;35.78
57801;BME280;43627;42.728;23.256;2023-07-24T11:22:40;94987.03;;;33.19;34.66
57801;BME280;43627;42.728;23.256;2023-07-24T11:25:09;94977.81;;;33.42;34.88
57801;BME280;43627;42.728;23.256;2023-07-24T11:27:43;94931.75;;;33.39;34.72
57801;BME280;43627;42.728;23.256;2023-07-24T11:30:11;94965.28;;;33.57;34.16
57801;BME280;43627;42.728;23.256;2023-07-24T11:32:40;94954.75;;;33.83;34.68
57801;BME280;43627;42.728;23.256;2023-07-24T11:35:08;94971.25;;;33.86;35.12
57801;BME280;43627;42.728;23.256;2023-07-24T11:37:39;94967.56;;;33.72;33.71
57801;BME280;43627;42.728;23.256;2023-07-24T11:40:06;94975.72;;;33.31;35.21
57801;BME280;43627;42.728;23.256;2023-07-24T11:42:40;94963.41;;;33.61;34.38
57801;BME280;43627;42.728;23.256;2023-07-24T11:45:09;94911.63;;;32.98;35.02
57801;BME280;43627;42.728;23.256;2023-07-24T11:47:48;94918.97;;;33.27;33.96
57801;BME280;43627;42.728;23.256;2023-07-24T11:50:16;94919.22;;;33.31;34.01
57801;BME280;43627;42.728;23.256;2023-07-24T11:52:45;94946.78;;;33.91;33.43
57801;BME280;43627;42.728;23.256;2023-07-24T11:55:14;94953.25;;;34.05;33.29
57801;BME280;43627;42.728;23.256;2023-07-24T11:57:41;94953.22;;;34.42;32.84
57801;BME280;43627;42.728;23.256;2023-07-24T12:00:19;94942.91;;;34.35;33.07
57801;BME280;43627;42.728;23.256;2023-07-24T12:02:46;94938.72;;;34.36;33.70
57801;BME280;43627;42.728;23.256;2023-07-24T12:05:14;94947.81;;;34.34;32.09
57801;BME280;43627;42.728;23.256;2023-07-24T12:07:42;94933.34;;;33.91;32.55
57801;BME280;43627;42.728;23.256;2023-07-24T12:10:12;94936.75;;;34.01;33.02
57801;BME280;43627;42.728;23.256;2023-07-24T12:12:40;94940.13;;;33.86;33.37
57801;BME280;43627;42.728;23.256;2023-07-24T12:15:09;94938.66;;;33.36;33.01
57801;BME280;43627;42.728;23.256;2023-07-24T12:17:37;94929.66;;;33.16;33.63
57801;BME280;43627;42.728;23.256;2023-07-24T12:20:05;94928.66;;;33.35;32.61
57801;BME280;43627;42.728;23.256;2023-07-24T12:22:38;94933.47;;;33.21;33.70
57801;BME280;43627;42.728;23.256;2023-07-24T12:25:08;94878.94;;;32.60;34.56
57801;BME280;43627;42.728;23.256;2023-07-24T12:27:35;94925.63;;;33.19;34.59
57801;BME280;43627;42.728;23.256;2023-07-24T12:30:02;94925.09;;;33.23;34.35
57801;BME280;43627;42.728;23.256;2023-07-24T12:32:30;94912.38;;;32.99;33.58
57801;BME280;43627;42.728;23.256;2023-07-24T12:34:57;94920.31;;;33.14;33.71
57801;BME280;43627;42.728;23.256;2023-07-24T12:37:24;94901.06;;;32.99;33.92
57801;BME280;43627;42.728;23.256;2023-07-24T12:39:51;94929.78;;;33.18;33.64
57801;BME280;43627;42.728;23.256;2023-07-24T12:42:18;94915.88;;;33.34;33.34
57801;BME280;43627;42.728;23.256;2023-07-24T12:44:45;94900.06;;;33.29;34.18
57801;BME280;43627;42.728;23.256;2023-07-24T12:47:12;94891.91;;;33.35;34.16
57801;BME280;43627;42.728;23.256;2023-07-24T12:49:39;94911.25;;;33.39;34.41
57801;BME280;43627;42.728;23.256;2023-07-24T12:52:07;94890.50;;;33.11;33.50
57801;BME280;43627;42.728;23.256;2023-07-24T12:54:34;94885.81;;;33.04;34.45
57801;BME280;43627;42.728;23.256;2023-07-24T12:57:21;94880.59;;;33.35;33.17
57801;BME280;43627;42.728;23.256;2023-07-24T12:59:50;94893.41;;;33.48;32.81
57801;BME280;43627;42.728;23.256;2023-07-24T13:02:17;94905.34;;;33.46;31.52
57801;BME280;43627;42.728;23.256;2023-07-24T13:04:43;94895.09;;;33.65;30.71
57801;BME280;43627;42.728;23.256;2023-07-24T13:07:11;94852.63;;;33.39;29.71
57801;BME280;43627;42.728;23.256;2023-07-24T13:09:38;94891.13;;;33.70;29.15
57801;BME280;43627;42.728;23.256;2023-07-24T13:12:05;94888.13;;;33.42;30.40
57801;BME280;43627;42.728;23.256;2023-07-24T13:14:32;94884.19;;;33.47;30.14
57801;BME280;43627;42.728;23.256;2023-07-24T13:16:59;94879.59;;;33.54;29.65
57801;BME280;43627;42.728;23.256;2023-07-24T13:19:25;94873.88;;;33.40;30.72
57801;BME280;43627;42.728;23.256;2023-07-24T13:21:52;94879.88;;;33.35;30.83
57801;BME280;43627;42.728;23.256;2023-07-24T13:24:19;94886.25;;;33.59;30.13
57801;BME280;43627;42.728;23.256;2023-07-24T13:26:46;94883.88;;;33.67;29.44
57801;BME280;43627;42.728;23.256;2023-07-24T13:29:13;94861.47;;;33.22;29.14
57801;BME280;43627;42.728;23.256;2023-07-24T13:31:40;94894.63;;;33.33;29.22
57801;BME280;43627;42.728;23.256;2023-07-24T13:34:07;94874.25;;;33.46;28.89
57801;BME280;43627;42.728;23.256;2023-07-24T13:36:35;94870.56;;;33.32;28.44
57801;BME280;43627;42.728;23.256;2023-07-24T13:39:02;94882.25;;;33.38;27.78
57801;BME280;43627;42.728;23.256;2023-07-24T13:41:29;94872.22;;;33.61;27.08
57801;BME280;43627;42.728;23.256;2023-07-24T13:43:56;94862.22;;;33.71;26.24
57801;BME280;43627;42.728;23.256;2023-07-24T13:46:23;94875.66;;;33.59;26.29
57801;BME280;43627;42.728;23.256;2023-07-24T13:48:50;94841.22;;;33.14;26.79
57801;BME280;43627;42.728;23.256;2023-07-24T13:51:17;94872.47;;;33.53;26.19
57801;BME280;43627;42.728;23.256;2023-07-24T13:53:44;94859.78;;;33.66;24.64
57801;BME280;43627;42.728;23.256;2023-07-24T13:56:13;94860.69;;;33.57;25.96
57801;BME280;43627;42.728;23.256;2023-07-24T13:58:40;94869.69;;;33.41;24.91
57801;BME280;43627;42.728;23.256;2023-07-24T14:01:07;94867.84;;;33.46;25.21
57801;BME280;43627;42.728;23.256;2023-07-24T14:03:34;94857.28;;;33.46;24.67
57801;BME280;43627;42.728;23.256;2023-07-24T14:06:01;94835.50;;;33.00;25.27
57801;BME280;43627;42.728;23.256;2023-07-24T14:08:28;94852.91;;;33.08;25.66
57801;BME280;43627;42.728;23.256;2023-07-24T14:10:55;94820.63;;;33.00;26.05
57801;BME280;43627;42.728;23.256;2023-07-24T14:13:22;94831.06;;;32.85;25.45